Time;durP1;ratioP1;P1;durP2;ratioP2;P2;SDS_P1;SDS_P2;PMS_P1;PMS_P2;Temp;Humidity;BMP_temperature;BMP_pressure;BME280_temperature;BME280_humidity;BME280_pressure;Samples;Min_cycle;Max_cycle;Signal;HPM_P1;HPM_P2
2023/04/01 00:01:13;;;;;;;3.92;0.93;;;9.60;99.90;;;;;;4998233;28;20044;-81
2023/04/01 00:03:39;;;;;;;0.98;0.55;;;9.60;99.90;;;;;;5016251;28;20030;-81
2023/04/01 00:06:05;;;;;;;3.60;0.52;;;9.50;99.90;;;;;;5001900;28;20112;-81
2023/04/01 00:08:31;;;;;;;1.33;0.40;;;9.70;99.90;;;;;;5031868;28;20029;-81
2023/04/01 00:10:57;;;;;;;4.40;0.98;;;9.60;99.90;;;;;;5002589;28;20038;-81
2023/04/01 00:13:23;;;;;;;2.15;1.05;;;10.40;99.90;;;;;;5007561;28;20036;-81
2023/04/01 00:15:49;;;;;;;4.00;0.35;;;9.40;99.90;;;;;;5026280;28;20125;-81
2023/04/01 00:18:15;;;;;;;3.88;0.50;;;9.80;99.90;;;;;;5013920;28;20065;-81
2023/04/01 00:20:45;;;;;;;3.47;0.80;;;9.70;99.90;;;;;;5006904;28;20049;-81
2023/04/01 00:23:11;;;;;;;2.45;0.80;;;9.70;99.90;;;;;;5003113;28;20092;-81
2023/04/01 00:25:36;;;;;;;3.22;0.55;;;9.60;99.90;;;;;;4989150;28;20030;-81
2023/04/01 00:28:02;;;;;;;3.00;0.52;;;9.60;99.90;;;;;;5004927;28;20033;-82
2023/04/01 00:30:27;;;;;;;3.53;0.85;;;9.50;99.90;;;;;;4988521;28;20030;-80
2023/04/01 00:32:53;;;;;;;1.10;0.40;;;9.70;99.90;;;;;;5024114;28;20029;-82
2023/04/01 00:35:19;;;;;;;0.63;0.63;;;10.10;99.90;;;;;;5019980;28;20030;-81
2023/04/01 00:37:44;;;;;;;1.58;0.70;;;9.70;99.90;;;;;;5003892;28;20040;-81
2023/04/01 00:40:27;;;;;;;1.05;0.38;;;9.40;99.90;;;;;;5005372;28;20053;-81
2023/04/01 00:42:52;;;;;;;3.47;0.52;;;9.60;99.90;;;;;;5002426;28;20140;-81
2023/04/01 00:45:24;;;;;;;0.75;0.30;;;9.70;99.90;;;;;;5033916;28;20034;-81
2023/04/01 00:47:49;;;;;;;4.03;0.50;;;9.60;99.90;;;;;;5022473;28;20465;-81
2023/04/01 00:50:15;;;;;;;1.15;0.77;;;9.50;99.90;;;;;;5009753;28;20128;-81
2023/04/01 00:52:40;;;;;;;0.22;0.20;;;9.80;99.90;;;;;;5005133;28;20033;-81
2023/04/01 00:55:07;;;;;;;3.13;0.30;;;9.20;99.90;;;;;;5010871;28;20805;-81
2023/04/01 00:57:36;;;;;;;2.03;0.63;;;9.60;99.90;;;;;;5006410;28;20516;-80
2023/04/01 01:00:02;;;;;;;0.43;0.40;;;9.30;99.90;;;;;;5006898;28;20508;-81
2023/04/01 01:02:28;;;;;;;0.52;0.30;;;9.60;99.90;;;;;;5006217;28;20023;-80
2023/04/01 01:04:53;;;;;;;0.90;0.55;;;9.30;99.90;;;;;;5009460;28;20060;-81
2023/04/01 01:07:24;;;;;;;1.08;0.43;;;9.40;99.90;;;;;;4999226;28;20049;-81
2023/04/01 01:10:09;;;;;;;1.38;0.20;;;9.70;99.90;;;;;;5034073;28;20446;-81
2023/04/01 01:13:06;;;;;;;1.67;0.50;;;9.70;99.90;;;;;;5033622;28;20026;-80
2023/04/01 01:15:45;;;;;;;0.50;0.35;;;9.60;99.90;;;;;;4984988;28;20042;-81
2023/04/01 01:18:16;;;;;;;0.85;0.40;;;9.50;99.90;;;;;;5025017;28;20042;-80
2023/04/01 01:20:53;;;;;;;1.50;0.40;;;10.50;99.90;;;;;;5025164;28;20576;-81
2023/04/01 01:23:51;;;;;;;2.85;0.80;;;9.50;99.90;;;;;;5014756;28;20038;-81
2023/04/01 01:26:46;;;;;;;2.40;0.50;;;9.60;99.90;;;;;;5008173;28;20079;-81
2023/04/01 01:29:45;;;;;;;0.10;0.10;;;9.50;99.90;;;;;;5021065;28;20124;-81
2023/04/01 01:32:47;;;;;;;3.30;0.45;;;9.50;99.90;;;;;;5025049;28;20057;-81
2023/04/01 01:35:17;;;;;;;1.77;0.30;;;9.60;99.90;;;;;;5023578;28;20033;-80
2023/04/01 01:37:42;;;;;;;1.38;0.40;;;9.50;99.90;;;;;;5036070;28;20109;-80
2023/04/01 01:40:10;;;;;;;1.95;0.20;;;9.50;99.90;;;;;;5007750;28;20113;-80
2023/04/01 01:42:37;;;;;;;4.07;0.77;;;9.50;99.90;;;;;;5001994;28;20909;-81
2023/04/01 01:45:03;;;;;;;0.88;0.50;;;9.50;99.90;;;;;;5022592;28;20401;-81
2023/04/01 01:47:29;;;;;;;1.35;0.30;;;9.50;99.90;;;;;;5009397;28;20030;-81
2023/04/01 01:49:55;;;;;;;0.32;0.20;;;9.50;99.90;;;;;;5024495;28;20033;-81
2023/04/01 01:52:22;;;;;;;0.32;0.15;;;9.30;99.90;;;;;;5019452;28;20034;-81
2023/04/01 01:54:51;;;;;;;1.58;0.65;;;9.30;99.90;;;;;;5003769;28;20062;-80
2023/04/01 01:57:17;;;;;;;1.73;0.15;;;9.30;99.90;;;;;;5014910;28;20078;-80
2023/04/01 01:59:43;;;;;;;2.17;0.38;;;10.10;99.90;;;;;;5000809;28;20041;-81
2023/04/01 02:02:08;;;;;;;3.92;0.40;;;9.50;99.90;;;;;;5007725;28;20029;-81
2023/04/01 02:04:40;;;;;;;2.13;0.30;;;9.40;99.90;;;;;;5014973;28;20030;-80
2023/04/01 02:07:12;;;;;;;2.65;0.30;;;9.40;99.90;;;;;;5018997;28;20604;-78
2023/04/01 02:09:38;;;;;;;1.17;0.73;;;9.40;99.90;;;;;;5013528;28;20556;-79
2023/04/01 02:12:08;;;;;;;1.35;0.20;;;9.40;99.90;;;;;;4997618;28;20033;-79
2023/04/01 02:14:41;;;;;;;2.15;0.52;;;9.30;99.90;;;;;;5019989;28;20557;-79
2023/04/01 02:17:21;;;;;;;1.38;0.22;;;9.40;99.90;;;;;;5000367;28;20066;-78
2023/04/01 02:19:55;;;;;;;1.13;0.47;;;9.40;99.90;;;;;;5022727;28;20042;-78
2023/04/01 02:22:23;;;;;;;3.63;0.20;;;9.40;99.90;;;;;;5011517;28;20029;-79
2023/04/01 02:24:50;;;;;;;1.10;0.40;;;10.40;99.90;;;;;;5003452;28;20032;-79
2023/04/01 02:27:16;;;;;;;2.38;0.30;;;9.30;99.90;;;;;;5014190;28;20033;-79
2023/04/01 02:29:41;;;;;;;0.93;0.32;;;9.10;99.90;;;;;;5000873;28;20061;-80
2023/04/01 02:32:07;;;;;;;0.30;0.30;;;9.40;99.90;;;;;;5002046;28;20384;-81
2023/04/01 02:34:33;;;;;;;0.88;0.50;;;9.80;99.90;;;;;;5005823;28;20041;-81
2023/04/01 02:36:59;;;;;;;0.47;0.35;;;9.30;99.90;;;;;;4998611;28;20037;-80
2023/04/01 02:39:26;;;;;;;0.77;0.30;;;9.10;99.90;;;;;;5000361;28;20057;-81
2023/04/01 02:41:51;;;;;;;0.60;0.20;;;9.40;99.90;;;;;;5018687;28;20493;-81
2023/04/01 02:44:17;;;;;;;3.40;0.28;;;9.10;99.90;;;;;;5003272;28;20038;-82
2023/04/01 02:46:43;;;;;;;2.38;0.35;;;9.30;99.90;;;;;;5000307;28;20091;-81
2023/04/01 02:49:08;;;;;;;1.15;0.30;;;9.30;99.90;;;;;;5006321;28;20026;-81
2023/04/01 02:51:34;;;;;;;2.67;0.60;;;9.20;99.90;;;;;;5001917;28;20049;-81
2023/04/01 02:54:00;;;;;;;1.35;0.40;;;9.70;99.90;;;;;;4991237;28;20054;-81
2023/04/01 02:56:25;;;;;;;1.05;0.30;;;9.30;99.90;;;;;;5032273;28;20037;-80
2023/04/01 02:58:51;;;;;;;1.75;0.32;;;10.00;99.90;;;;;;5002133;28;20124;-80
2023/04/01 03:01:17;;;;;;;1.50;0.20;;;9.60;99.90;;;;;;5003405;28;20065;-80
2023/04/01 03:03:43;;;;;;;0.35;0.20;;;9.30;99.90;;;;;;5003911;28;20088;-80
2023/04/01 03:06:10;;;;;;;0.20;0.03;;;9.30;99.90;;;;;;5006371;28;20030;-81
2023/04/01 03:08:35;;;;;;;0.75;0.20;;;9.30;99.90;;;;;;5007640;28;20477;-82
2023/04/01 03:11:01;;;;;;;0.10;0.10;;;9.30;99.90;;;;;;5002370;28;20045;-81
2023/04/01 03:13:26;;;;;;;0.40;0.22;;;9.10;99.90;;;;;;5021575;28;20393;-82
2023/04/01 03:15:52;;;;;;;1.17;0.50;;;9.50;99.90;;;;;;5018582;28;20064;-81
2023/04/01 03:18:18;;;;;;;1.00;0.70;;;9.30;99.90;;;;;;5011598;28;20088;-80
2023/04/01 03:20:44;;;;;;;1.85;0.45;;;9.30;99.90;;;;;;4999606;28;20026;-81
2023/04/01 03:23:09;;;;;;;0.75;0.30;;;9.30;99.90;;;;;;5004024;28;20116;-80
2023/04/01 03:25:35;;;;;;;1.33;0.35;;;9.10;99.90;;;;;;5017108;28;20026;-80
2023/04/01 03:28:01;;;;;;;0.63;0.20;;;9.00;99.90;;;;;;5014851;28;20554;-81
2023/04/01 03:30:26;;;;;;;1.25;0.40;;;9.30;99.90;;;;;;5011171;28;20029;-81
2023/04/01 03:32:52;;;;;;;1.00;0.28;;;9.20;99.90;;;;;;5031147;28;20034;-81
2023/04/01 03:35:18;;;;;;;0.40;0.30;;;9.50;99.90;;;;;;5030703;28;20128;-81
2023/04/01 03:37:43;;;;;;;1.95;0.40;;;9.10;99.90;;;;;;5003329;28;20030;-81
2023/04/01 03:40:09;;;;;;;1.77;0.28;;;9.10;99.90;;;;;;5003637;28;20746;-81
2023/04/01 03:42:35;;;;;;;0.40;0.40;;;9.30;99.90;;;;;;4999555;28;20026;-81
2023/04/01 03:45:02;;;;;;;1.45;0.50;;;9.50;99.90;;;;;;5003310;28;20390;-82
2023/04/01 03:47:28;;;;;;;0.98;0.10;;;9.10;99.90;;;;;;5007392;28;20509;-81
2023/04/01 03:49:53;;;;;;;0.55;0.30;;;9.20;99.90;;;;;;5011483;28;20168;-81
2023/04/01 03:52:19;;;;;;;0.50;0.45;;;9.20;99.90;;;;;;5002758;28;20034;-81
2023/04/01 03:54:44;;;;;;;0.82;0.10;;;9.20;99.90;;;;;;5003220;28;20025;-81
2023/04/01 03:57:10;;;;;;;1.42;0.32;;;9.10;99.90;;;;;;5002231;28;20030;-80
2023/04/01 03:59:36;;;;;;;0.57;0.30;;;9.30;99.90;;;;;;5002018;28;20022;-80
2023/04/01 04:02:01;;;;;;;1.27;0.50;;;9.40;99.90;;;;;;5019315;28;20578;-80
2023/04/01 04:04:27;;;;;;;1.55;0.40;;;9.20;99.90;;;;;;5019722;28;20041;-80
2023/04/01 04:06:53;;;;;;;1.10;0.30;;;9.30;99.90;;;;;;5031594;28;20470;-80
2023/04/01 04:09:18;;;;;;;2.20;0.68;;;9.30;99.90;;;;;;5005547;28;20053;-81
2023/04/01 04:11:44;;;;;;;1.10;0.28;;;9.30;99.90;;;;;;5006331;28;20061;-81
2023/04/01 04:14:09;;;;;;;3.65;0.38;;;9.00;99.90;;;;;;5007090;28;20030;-80
2023/04/01 04:16:36;;;;;;;1.17;0.38;;;9.40;99.90;;;;;;5025460;28;20489;-80
2023/04/01 04:19:02;;;;;;;0.52;0.32;;;9.60;99.90;;;;;;5006575;28;20030;-80
2023/04/01 04:21:28;;;;;;;1.00;0.60;;;9.30;99.90;;;;;;5029834;28;20438;-82
2023/04/01 04:23:53;;;;;;;0.70;0.43;;;9.10;99.90;;;;;;5003945;28;20092;-82
2023/04/01 04:26:19;;;;;;;1.92;0.43;;;9.20;99.90;;;;;;5018293;28;20058;-83
2023/04/01 04:28:45;;;;;;;0.30;0.30;;;9.20;99.90;;;;;;5003793;28;20075;-82
2023/04/01 04:31:11;;;;;;;0.98;0.40;;;9.90;99.90;;;;;;4997801;28;20040;-82
2023/04/01 04:33:36;;;;;;;0.93;0.47;;;9.30;99.90;;;;;;5002891;28;20044;-81
2023/04/01 04:36:03;;;;;;;0.47;0.30;;;9.20;99.90;;;;;;5002003;28;20072;-82
2023/04/01 04:38:28;;;;;;;1.50;0.50;;;9.30;99.90;;;;;;5019070;28;20040;-82
2023/04/01 04:40:54;;;;;;;2.30;0.35;;;9.70;99.90;;;;;;5004810;28;20025;-82
2023/04/01 04:43:20;;;;;;;0.43;0.43;;;9.20;99.90;;;;;;5007427;28;20043;-81
2023/04/01 04:45:46;;;;;;;0.10;0.10;;;9.20;99.90;;;;;;5023153;28;20066;-81
2023/04/01 04:48:19;;;;;;;2.33;0.63;;;9.60;99.90;;;;;;4998347;28;20044;-81
2023/04/01 04:50:47;;;;;;;1.95;0.60;;;9.20;99.90;;;;;;5020429;28;20088;-81
2023/04/01 04:53:13;;;;;;;3.00;0.60;;;9.10;99.90;;;;;;5016159;28;20383;-82
2023/04/01 04:55:43;;;;;;;0.60;0.32;;;9.10;99.90;;;;;;5017187;28;20091;-81
2023/04/01 04:58:09;;;;;;;1.23;0.38;;;9.20;99.90;;;;;;5025729;28;20037;-80
2023/04/01 05:00:35;;;;;;;0.20;0.20;;;9.40;99.90;;;;;;5001135;28;20042;-80
2023/04/01 05:03:00;;;;;;;0.65;0.47;;;9.40;99.90;;;;;;5014050;28;20041;-80
2023/04/01 05:05:26;;;;;;;1.58;0.30;;;9.80;99.90;;;;;;5029899;28;21089;-79
2023/04/01 05:07:51;;;;;;;0.70;0.30;;;9.10;99.90;;;;;;5005525;28;20026;-80
2023/04/01 05:10:17;;;;;;;1.13;0.60;;;9.20;99.90;;;;;;5013413;28;20505;-81
2023/04/01 05:12:43;;;;;;;0.68;0.55;;;9.20;99.90;;;;;;5020196;28;20128;-80
2023/04/01 05:15:09;;;;;;;1.27;0.55;;;9.30;99.90;;;;;;5009003;28;20052;-80
2023/04/01 05:17:34;;;;;;;0.40;0.40;;;9.40;99.90;;;;;;5014460;28;20056;-80
2023/04/01 05:20:00;;;;;;;0.40;0.20;;;9.50;99.90;;;;;;5007169;28;20489;-80
2023/04/01 05:22:26;;;;;;;1.65;0.25;;;9.20;99.90;;;;;;5018504;28;20534;-79
2023/04/01 05:24:51;;;;;;;1.80;0.55;;;9.30;99.90;;;;;;5015641;28;20503;-80
2023/04/01 05:27:17;;;;;;;0.50;0.50;;;9.20;99.90;;;;;;5016981;28;20123;-80
2023/04/01 05:29:42;;;;;;;0.68;0.52;;;9.50;99.90;;;;;;5017197;28;20046;-80
2023/04/01 05:32:08;;;;;;;0.30;0.25;;;9.30;99.90;;;;;;5005645;28;20056;-79
2023/04/01 05:34:33;;;;;;;0.88;0.85;;;9.30;99.90;;;;;;5007332;28;20041;-79
2023/04/01 05:36:59;;;;;;;0.65;0.57;;;9.40;99.90;;;;;;5007427;28;20091;-80
2023/04/01 05:39:25;;;;;;;0.75;0.65;;;9.30;99.90;;;;;;5012556;28;20037;-79
2023/04/01 05:41:50;;;;;;;1.40;0.80;;;9.70;99.90;;;;;;5014679;28;20029;-80
2023/04/01 05:44:16;;;;;;;1.05;0.65;;;9.40;99.90;;;;;;4998751;28;20050;-80
2023/04/01 05:46:41;;;;;;;3.22;1.25;;;9.10;99.90;;;;;;5002502;28;20030;-80
2023/04/01 05:49:07;;;;;;;0.70;0.70;;;9.30;99.90;;;;;;5011653;28;20034;-80
2023/04/01 05:51:32;;;;;;;2.05;0.85;;;9.30;99.90;;;;;;5014099;28;20038;-81
2023/04/01 05:53:58;;;;;;;1.45;1.20;;;9.30;99.90;;;;;;5007505;28;20677;-80
2023/04/01 05:56:24;;;;;;;1.67;0.63;;;9.20;99.90;;;;;;4995007;28;20048;-80
2023/04/01 05:58:51;;;;;;;0.45;0.32;;;9.50;99.90;;;;;;5007950;28;20506;-80
2023/04/01 06:01:18;;;;;;;0.80;0.80;;;9.40;99.90;;;;;;4998534;28;20038;-80
2023/04/01 06:03:43;;;;;;;0.77;0.70;;;9.30;99.90;;;;;;5002314;28;20747;-80
2023/04/01 06:06:15;;;;;;;0.68;0.68;;;9.10;99.90;;;;;;5004940;28;20033;-80
2023/04/01 06:08:41;;;;;;;1.30;0.93;;;9.50;99.90;;;;;;5003978;28;20087;-80
2023/04/01 06:11:31;;;;;;;1.00;0.75;;;9.30;99.90;;;;;;5001512;28;20637;-80
2023/04/01 06:14:10;;;;;;;2.80;1.13;;;9.40;99.90;;;;;;5014766;28;20033;-80
2023/04/01 06:16:44;;;;;;;2.25;0.77;;;9.30;99.90;;;;;;5014495;28;20049;-80
2023/04/01 06:19:29;;;;;;;5.45;2.38;;;9.30;99.90;;;;;;5010726;28;20444;-80
2023/04/01 06:21:57;;;;;;;3.38;1.90;;;9.40;99.90;;;;;;5013340;28;20370;-80
2023/04/01 06:24:36;;;;;;;7.30;2.30;;;9.40;99.90;;;;;;5027269;28;20121;-80
2023/04/01 06:27:15;;;;;;;12.48;4.30;;;9.40;99.90;;;;;;5015132;28;20030;-80
2023/04/01 06:30:08;;;;;;;11.07;4.32;;;9.40;99.90;;;;;;5006816;28;20058;-79
2023/04/01 06:32:52;;;;;;;14.45;5.60;;;9.50;99.90;;;;;;4998962;28;20034;-81
2023/04/01 06:35:23;;;;;;;14.48;5.38;;;9.70;99.90;;;;;;5018326;28;20117;-80
2023/04/01 06:37:58;;;;;;;11.55;4.60;;;9.60;99.90;;;;;;4667717;28;10000430;-80
2023/04/01 06:40:38;;;;;;;4.57;2.25;;;9.50;99.90;;;;;;5020157;28;20034;-80
2023/04/01 06:43:25;;;;;;;13.10;4.20;;;9.60;99.90;;;;;;5009140;28;20030;-80
2023/04/01 06:46:11;;;;;;;2.85;1.90;;;9.40;99.90;;;;;;5016112;28;20255;-80
2023/04/01 06:48:56;;;;;;;15.85;4.53;;;9.40;99.90;;;;;;5013454;28;20034;-79
2023/04/01 06:51:22;;;;;;;7.82;2.95;;;9.40;99.90;;;;;;5021510;28;20029;-81
2023/04/01 06:53:54;;;;;;;6.82;2.88;;;9.40;99.90;;;;;;5021354;28;20108;-80
2023/04/01 06:56:21;;;;;;;13.75;5.03;;;9.50;99.90;;;;;;5000015;28;20143;-79
2023/04/01 06:58:52;;;;;;;11.60;4.68;;;9.50;99.90;;;;;;5017116;28;20866;-80
2023/04/01 07:01:33;;;;;;;10.80;4.13;;;9.50;99.90;;;;;;5010217;28;20052;-80
2023/04/01 07:04:00;;;;;;;8.43;1.75;;;9.50;99.90;;;;;;5002809;28;20510;-80
2023/04/01 07:06:30;;;;;;;14.45;4.68;;;10.20;99.90;;;;;;5026338;28;20052;-80
2023/04/01 07:09:00;;;;;;;6.80;3.28;;;10.30;99.90;;;;;;4997606;28;20037;-80
2023/04/01 07:11:29;;;;;;;10.30;3.85;;;9.80;99.90;;;;;;5004011;28;20045;-80
2023/04/01 07:14:08;;;;;;;8.18;2.90;;;9.60;99.90;;;;;;5005454;28;20533;-80
2023/04/01 07:17:00;;;;;;;10.55;3.45;;;9.60;99.90;;;;;;5006818;28;20041;-80
2023/04/01 07:19:47;;;;;;;12.18;3.00;;;9.60;99.90;;;;;;5023215;28;20041;-78
2023/04/01 07:22:26;;;;;;;10.15;2.88;;;9.60;99.90;;;;;;5024657;28;20628;-80
2023/04/01 07:24:52;;;;;;;10.23;3.75;;;9.50;99.90;;;;;;5029360;28;20041;-79
2023/04/01 07:27:17;;;;;;;2.30;1.35;;;9.50;99.90;;;;;;5020028;28;20440;-79
2023/04/01 07:29:43;;;;;;;11.20;2.40;;;9.60;99.90;;;;;;5024757;28;20588;-79
2023/04/01 07:32:27;;;;;;;7.53;2.50;;;10.20;99.90;;;;;;5009465;28;20034;-80
2023/04/01 07:35:04;;;;;;;8.68;2.70;;;9.70;99.90;;;;;;5028354;28;20025;-79
2023/04/01 07:37:53;;;;;;;12.30;3.05;;;9.60;99.90;;;;;;5024378;28;20034;-79
2023/04/01 07:40:31;;;;;;;4.70;1.63;;;9.70;99.90;;;;;;5019222;28;20120;-79
2023/04/01 07:43:24;;;;;;;6.28;2.78;;;9.70;99.90;;;;;;5018362;28;20030;-79
2023/04/01 07:46:11;;;;;;;6.50;2.17;;;9.70;99.90;;;;;;5031248;28;20119;-79
2023/04/01 07:49:17;;;;;;;7.18;3.38;;;9.70;99.90;;;;;;5019163;28;20037;-78
2023/04/01 07:52:18;;;;;;;6.40;3.00;;;9.80;99.90;;;;;;4975340;28;20034;-79
2023/04/01 07:55:14;;;;;;;5.35;2.17;;;9.90;99.90;;;;;;4943599;28;20036;-78
2023/04/01 07:57:51;;;;;;;9.05;2.65;;;9.80;99.90;;;;;;5012021;28;20038;-79
2023/04/01 08:00:27;;;;;;;3.17;2.20;;;9.80;99.90;;;;;;5021232;28;20818;-79
2023/04/01 08:03:21;;;;;;;4.97;2.97;;;10.00;99.90;;;;;;5029441;28;20037;-79
2023/04/01 08:05:59;;;;;;;4.32;2.13;;;9.80;99.90;;;;;;5019725;28;20405;-79
2023/04/01 08:08:39;;;;;;;4.70;2.00;;;9.80;99.90;;;;;;5020709;28;20041;-78
2023/04/01 08:11:24;;;;;;;3.42;2.10;;;9.80;99.90;;;;;;5033545;28;20663;-80
2023/04/01 08:14:18;;;;;;;3.17;2.17;;;9.80;99.90;;;;;;5024939;28;20095;-79
2023/04/01 08:17:05;;;;;;;4.28;1.90;;;9.80;99.90;;;;;;5004915;28;20057;-80
2023/04/01 08:19:52;;;;;;;4.32;2.45;;;9.80;99.90;;;;;;5027271;28;20048;-79
2023/04/01 08:22:40;;;;;;;6.22;2.83;;;9.80;99.90;;;;;;5006953;28;20041;-79
2023/04/01 08:25:09;;;;;;;5.35;2.78;;;9.90;99.90;;;;;;5016852;28;20067;-79
2023/04/01 08:27:39;;;;;;;4.25;2.33;;;9.80;99.90;;;;;;5005065;28;20037;-79
2023/04/01 08:30:20;;;;;;;8.68;3.20;;;9.80;99.90;;;;;;5006212;28;20041;-78
2023/04/01 08:33:12;;;;;;;3.05;2.08;;;9.80;99.90;;;;;;5030602;28;20034;-79
2023/04/01 08:35:46;;;;;;;3.15;1.98;;;9.90;99.90;;;;;;5029512;28;20041;-78
2023/04/01 08:38:34;;;;;;;3.75;2.10;;;9.70;99.90;;;;;;5015090;28;20425;-79
2023/04/01 08:41:00;;;;;;;4.07;2.78;;;9.90;99.90;;;;;;5017737;28;20037;-78
2023/04/01 08:43:59;;;;;;;4.93;2.88;;;9.90;99.90;;;;;;5006569;28;20034;-79
2023/04/01 08:46:45;;;;;;;5.57;3.63;;;9.90;99.90;;;;;;5003025;28;20060;-79
2023/04/01 08:49:14;;;;;;;6.30;3.10;;;9.90;99.90;;;;;;5003298;28;20048;-79
2023/04/01 08:52:11;;;;;;;6.60;2.33;;;9.90;99.90;;;;;;5014273;28;20037;-79
2023/04/01 08:55:15;;;;;;;4.38;1.92;;;9.80;99.90;;;;;;5020360;28;20076;-79
2023/04/01 08:58:12;;;;;;;2.97;2.25;;;9.90;99.90;;;;;;5017042;28;20034;-80
2023/04/01 09:00:57;;;;;;;2.33;1.70;;;9.80;99.90;;;;;;5029383;28;20114;-79
2023/04/01 09:04:00;;;;;;;3.75;2.75;;;10.40;99.90;;;;;;5005257;28;20030;-79
2023/04/01 09:07:00;;;;;;;5.40;3.80;;;9.90;99.90;;;;;;4984018;28;20034;-78
2023/04/01 09:09:34;;;;;;;4.65;2.47;;;9.90;99.90;;;;;;5021447;28;20121;-79
2023/04/01 09:12:30;;;;;;;4.32;3.40;;;10.30;99.90;;;;;;5013510;28;20381;-79
2023/04/01 09:15:04;;;;;;;3.90;1.67;;;9.90;99.90;;;;;;5027716;28;20109;-79
2023/04/01 09:17:52;;;;;;;5.35;3.20;;;9.90;99.90;;;;;;5029481;28;20034;-79
2023/04/01 09:20:47;;;;;;;4.47;3.15;;;9.90;99.90;;;;;;5022551;28;20030;-80
2023/04/01 09:23:25;;;;;;;3.85;2.63;;;9.90;99.90;;;;;;5015318;28;20026;-79
2023/04/01 09:26:12;;;;;;;10.10;4.40;;;10.00;99.90;;;;;;5016878;28;20026;-79
2023/04/01 09:28:41;;;;;;;4.80;3.60;;;10.00;99.90;;;;;;5019113;28;20048;-79
2023/04/01 09:31:31;;;;;;;5.50;3.72;;;10.10;99.90;;;;;;5020674;28;20069;-79
2023/04/01 09:34:07;;;;;;;9.52;2.03;;;10.00;99.90;;;;;;5029485;28;20037;-79
2023/04/01 09:36:37;;;;;;;5.40;3.22;;;9.80;99.90;;;;;;4324285;28;10000997;-79
2023/04/01 09:39:19;;;;;;;6.28;3.88;;;9.80;99.90;;;;;;5008978;28;20247;-78
2023/04/01 09:41:44;;;;;;;7.32;4.88;;;10.10;99.90;;;;;;5008023;28;20489;-80
2023/04/01 09:44:23;;;;;;;6.75;4.25;;;10.10;99.90;;;;;;5025066;28;20039;-79
2023/04/01 09:46:53;;;;;;;5.88;3.58;;;10.10;99.90;;;;;;5005353;28;20559;-80
2023/04/01 09:49:54;;;;;;;9.25;6.20;;;10.10;99.90;;;;;;5002261;28;20616;-79
2023/04/01 09:52:57;;;;;;;7.55;5.65;;;10.20;99.90;;;;;;5026309;28;20120;-78
2023/04/01 09:55:39;;;;;;;11.63;8.55;;;10.20;99.90;;;;;;5025280;28;20034;-78
2023/04/01 09:58:12;;;;;;;11.00;6.97;;;10.20;99.90;;;;;;5010074;28;20108;-78
2023/04/01 10:00:46;;;;;;;12.10;7.18;;;10.30;99.90;;;;;;5014249;28;20500;-78
2023/04/01 10:03:20;;;;;;;8.63;5.75;;;10.20;99.90;;;;;;5023639;28;20044;-80
2023/04/01 10:06:23;;;;;;;5.38;3.30;;;10.30;99.90;;;;;;4666333;28;9999927;-80
2023/04/01 10:09:02;;;;;;;7.75;5.28;;;10.50;99.90;;;;;;5028851;28;20048;-80
2023/04/01 10:11:43;;;;;;;8.88;6.72;;;10.60;99.90;;;;;;5014314;28;20041;-80
2023/04/01 10:14:23;;;;;;;7.90;6.15;;;10.60;99.90;;;;;;5014476;28;20056;-78
2023/04/01 10:17:11;;;;;;;7.15;4.60;;;10.70;99.90;;;;;;5031050;28;20579;-80
2023/04/01 10:20:08;;;;;;;7.30;4.68;;;10.70;99.90;;;;;;5029125;28;20042;-80
2023/04/01 10:22:58;;;;;;;6.25;4.57;;;10.70;99.90;;;;;;5017675;28;20578;-80
2023/04/01 10:26:08;;;;;;;7.55;4.15;;;10.70;99.90;;;;;;5033045;28;20050;-80
2023/04/01 10:29:02;;;;;;;4.97;3.47;;;10.80;99.90;;;;;;5014557;28;20040;-79
2023/04/01 10:32:00;;;;;;;6.95;5.30;;;10.70;99.90;;;;;;5024561;28;20045;-80
2023/04/01 10:34:31;;;;;;;7.63;5.15;;;10.70;99.90;;;;;;5017166;28;20038;-80
2023/04/01 10:37:10;;;;;;;5.28;3.50;;;10.90;99.90;;;;;;5010612;28;20532;-80
2023/04/01 10:39:42;;;;;;;9.65;6.55;;;10.80;99.90;;;;;;5014934;28;20555;-79
2023/04/01 10:42:22;;;;;;;6.60;3.25;;;10.80;99.90;;;;;;5017695;28;20045;-80
2023/04/01 10:45:16;;;;;;;5.95;4.57;;;10.80;99.90;;;;;;4999823;28;20049;-80
2023/04/01 10:48:05;;;;;;;5.18;3.50;;;10.90;99.90;;;;;;5014289;28;20033;-79
2023/04/01 10:50:48;;;;;;;4.40;3.47;;;11.00;99.90;;;;;;5020116;28;20117;-80
2023/04/01 10:53:39;;;;;;;6.30;3.67;;;10.90;99.90;;;;;;5014455;28;20038;-80
2023/04/01 10:56:10;;;;;;;6.47;3.60;;;10.90;99.90;;;;;;5030166;28;20057;-80
2023/04/01 10:59:10;;;;;;;7.13;5.93;;;10.90;99.90;;;;;;5018733;28;20033;-78
2023/04/01 11:01:45;;;;;;;8.43;3.92;;;10.80;99.90;;;;;;4998911;28;20033;-78
2023/04/01 11:04:34;;;;;;;5.38;3.15;;;10.80;99.90;;;;;;5016219;28;20037;-79
2023/04/01 11:07:28;;;;;;;6.30;5.50;;;10.90;99.90;;;;;;4998523;28;20116;-78
2023/04/01 11:10:18;;;;;;;9.30;4.55;;;10.80;99.90;;;;;;5011557;28;20033;-78
2023/04/01 11:13:08;;;;;;;6.65;4.93;;;10.90;99.90;;;;;;5028560;28;20130;-78
2023/04/01 11:15:58;;;;;;;8.45;5.65;;;10.70;99.90;;;;;;5010463;28;20034;-78
2023/04/01 11:18:51;;;;;;;8.98;5.18;;;10.70;99.90;;;;;;5016379;28;20080;-78
2023/04/01 11:21:35;;;;;;;5.47;3.67;;;10.80;99.90;;;;;;4674100;28;9999730;-78
2023/04/01 11:24:16;;;;;;;9.70;6.45;;;10.70;99.90;;;;;;5028342;28;20052;-78
2023/04/01 11:26:51;;;;;;;7.50;5.25;;;10.70;99.90;;;;;;4995988;28;20121;-79
2023/04/01 11:29:38;;;;;;;9.77;5.38;;;10.70;99.90;;;;;;5017691;28;20117;-78
2023/04/01 11:32:32;;;;;;;8.80;6.50;;;10.70;99.90;;;;;;5009783;28;20033;-78
2023/04/01 11:35:03;;;;;;;9.70;6.57;;;10.80;99.90;;;;;;5022448;28;20060;-78
2023/04/01 11:37:46;;;;;;;8.93;4.68;;;10.80;99.90;;;;;;5010577;28;20037;-78
2023/04/01 11:40:34;;;;;;;5.60;3.45;;;10.80;99.90;;;;;;5013547;28;20310;-79
2023/04/01 11:43:23;;;;;;;9.48;4.40;;;10.90;99.90;;;;;;4998911;28;20040;-79
2023/04/01 11:46:03;;;;;;;4.85;3.60;;;10.90;99.90;;;;;;5015707;28;20029;-79
2023/04/01 11:48:50;;;;;;;6.88;5.47;;;10.90;99.90;;;;;;5021779;28;20033;-79
2023/04/01 11:51:43;;;;;;;7.57;5.28;;;10.90;99.90;;;;;;5018202;28;20041;-78
2023/04/01 11:54:32;;;;;;;7.93;4.22;;;11.10;99.90;;;;;;4986970;28;20030;-77
2023/04/01 11:57:06;;;;;;;5.72;3.65;;;11.00;99.90;;;;;;5014550;28;20045;-77
2023/04/01 11:59:50;;;;;;;5.75;5.15;;;11.10;99.90;;;;;;5023493;28;20034;-76
2023/04/01 12:02:53;;;;;;;4.93;2.72;;;11.30;99.90;;;;;;5019286;28;20045;-77
2023/04/01 12:05:39;;;;;;;10.27;3.25;;;11.10;99.90;;;;;;5032976;28;20232;-78
2023/04/01 12:08:11;;;;;;;4.30;3.88;;;11.20;99.90;;;;;;5007149;28;20579;-76
2023/04/01 12:10:40;;;;;;;5.63;4.28;;;11.10;99.90;;;;;;5012541;28;20041;-76
2023/04/01 12:13:24;;;;;;;6.10;5.20;;;11.20;99.90;;;;;;5027620;28;20034;-78
2023/04/01 12:15:53;;;;;;;6.85;5.70;;;11.20;99.90;;;;;;5016324;28;20521;-78
2023/04/01 12:18:38;;;;;;;6.05;4.22;;;11.30;99.90;;;;;;5016303;28;20688;-78
2023/04/01 12:21:44;;;;;;;5.55;4.05;;;11.10;99.90;;;;;;4998240;28;20577;-78
2023/04/01 12:24:40;;;;;;;3.65;2.85;;;11.00;99.90;;;;;;5019403;28;20557;-78
2023/04/01 12:27:10;;;;;;;9.98;7.82;;;10.90;99.90;;;;;;5000413;28;20021;-78
2023/04/01 12:29:35;;;;;;;8.70;7.80;;;11.30;99.90;;;;;;5016511;28;20033;-78
2023/04/01 12:32:38;;;;;;;8.60;6.43;;;11.10;99.90;;;;;;5024363;28;21037;-79
2023/04/01 12:35:27;;;;;;;8.68;6.55;;;11.10;99.90;;;;;;5020828;28;20121;-78
2023/04/01 12:38:15;;;;;;;8.00;6.68;;;11.10;99.90;;;;;;5001590;28;20377;-78
2023/04/01 12:40:59;;;;;;;7.88;6.82;;;11.30;99.90;;;;;;5018188;28;20034;-79
2023/04/01 12:43:31;;;;;;;5.95;5.28;;;11.30;99.90;;;;;;5022833;28;20553;-78
2023/04/01 12:46:35;;;;;;;7.22;6.00;;;11.40;99.90;;;;;;5021846;28;20497;-78
2023/04/01 12:49:04;;;;;;;8.23;6.18;;;11.30;99.90;;;;;;4966442;28;20034;-79
2023/04/01 12:51:33;;;;;;;7.72;6.93;;;11.40;99.90;;;;;;5020185;28;20070;-78
2023/04/01 12:54:22;;;;;;;5.72;4.07;;;11.30;99.90;;;;;;5018471;28;20733;-78
2023/04/01 12:57:10;;;;;;;11.70;8.20;;;11.40;99.90;;;;;;4990533;28;20691;-79
2023/04/01 13:00:00;;;;;;;10.00;6.97;;;11.30;99.90;;;;;;5019228;28;20033;-77
2023/04/01 13:02:46;;;;;;;9.30;7.40;;;11.40;99.90;;;;;;5021054;28;20099;-78
2023/04/01 13:05:23;;;;;;;11.02;8.73;;;11.30;99.90;;;;;;5019203;28;20068;-79
2023/04/01 13:07:53;;;;;;;10.20;7.65;;;11.40;99.90;;;;;;5015704;28;20029;-78
2023/04/01 13:10:27;;;;;;;9.38;6.55;;;11.10;99.90;;;;;;5004420;28;20571;-78
2023/04/01 13:13:24;;;;;;;5.93;3.97;;;11.20;99.90;;;;;;5011569;28;20117;-77
2023/04/01 13:15:57;;;;;;;8.10;4.10;;;11.20;99.90;;;;;;5016341;28;20106;-78
2023/04/01 13:18:38;;;;;;;6.15;5.32;;;11.10;99.90;;;;;;5029142;28;20038;-77
2023/04/01 13:21:28;;;;;;;9.15;7.05;;;11.10;99.90;;;;;;5029744;28;20061;-78
2023/04/01 13:24:09;;;;;;;7.05;5.25;;;11.10;99.90;;;;;;5029189;28;20029;-78
2023/04/01 13:26:47;;;;;;;7.88;6.18;;;11.10;99.90;;;;;;5016876;28;20753;-77
2023/04/01 13:29:30;;;;;;;10.23;7.18;;;11.20;99.90;;;;;;5018402;28;20132;-78
2023/04/01 13:31:59;;;;;;;8.60;5.70;;;11.00;99.90;;;;;;5023729;28;20032;-78
2023/04/01 13:34:37;;;;;;;6.85;5.15;;;11.10;99.90;;;;;;5013742;28;20505;-77
2023/04/01 13:37:31;;;;;;;6.30;4.30;;;10.90;99.90;;;;;;5026359;28;20128;-78